Terminal Aerodrome Forecast
Issued by NWS

Home | Current Version | Previous Version | Text Only | Print | Product List | Glossary On
Versions: 1 2 3 4 5 6 7 8 9 10 11 12 13 14 15 16 17 18 19 20 21 22 23 24
000
FTUS43 KGLD 290525
TAFMCK
TAF
KMCK 290525Z 2906/3006 33015KT P6SM FEW015 SCT100
     FM290700 34014KT P6SM SCT008 BKN015
     FM291600 34013G20KT P6SM SCT015
     FM292000 35008KT P6SM SKC
     FM292300 VRB03KT P6SM BKN250=

USA.gov is the U.S. government's official web portal to all federal, state and local government web resources and services.